createdAt,value
2024-01-16T00:00:38.090Z,10.4
2024-01-16T00:15:38.053Z,7.9
2024-01-16T00:30:39.769Z,7.6
2024-01-16T00:45:39.735Z,7.1
2024-01-16T01:00:40.672Z,7.9
2024-01-16T01:15:42.551Z,7.8
2024-01-16T01:30:42.318Z,6.5
2024-01-16T01:45:43.899Z,6.5
2024-01-16T02:00:43.821Z,6.8
2024-01-16T02:01:33.240Z,8.7
2024-01-16T02:15:44.759Z,8.9
2024-01-16T02:30:45.249Z,7.9
2024-01-16T02:45:46.613Z,10.9
2024-01-16T03:00:46.941Z,8.9
2024-01-16T03:15:47.100Z,11.3
2024-01-16T03:30:49.073Z,11.1
2024-01-16T03:45:48.846Z,10.8
2024-01-16T04:00:49.746Z,9.4
2024-01-16T04:15:51.186Z,10.7
2024-01-16T04:30:50.593Z,12.1
2024-01-16T04:45:51.492Z,9.8
2024-01-16T05:00:52.318Z,14.6
2024-01-16T05:15:52.695Z,16.1
2024-01-16T05:30:55.262Z,14.4
2024-01-16T05:45:53.415Z,10.3
2024-01-16T06:00:54.383Z,17.4
2024-01-16T06:15:56.058Z,16.8
2024-01-16T06:30:56.689Z,15.5
2024-01-16T06:45:57.256Z,12.9
2024-01-16T06:50:16.653Z,15.2
2024-01-16T07:05:07.098Z,16.6
2024-01-16T07:20:08.046Z,21.9
2024-01-16T07:35:09.055Z,18.9
2024-01-16T07:50:09.241Z,19.6
2024-01-16T08:05:09.428Z,20.7
2024-01-16T08:20:19.421Z,59.5
2024-01-16T08:35:18.755Z,19.6
2024-01-16T08:50:21.264Z,15.9
2024-01-16T09:05:18.786Z,22
2024-01-16T09:20:20.234Z,23
2024-01-16T09:35:20.101Z,21.1
2024-01-16T09:50:21.053Z,42.4
2024-01-16T10:05:19.125Z,17.5
2024-01-16T10:20:21.620Z,16.7
2024-01-16T10:35:19.534Z,19.7
2024-01-16T10:50:22.880Z,17.1
2024-01-16T11:05:20.714Z,12.6
2024-01-16T11:20:48.803Z,15.7
2024-01-16T11:35:21.479Z,13.7
2024-01-16T11:50:24.513Z,12.8
2024-01-16T12:05:22.262Z,14.9
2024-01-16T12:20:23.795Z,12.2
2024-01-16T12:35:22.873Z,10.9
2024-01-16T12:50:25.389Z,12.8
2024-01-16T13:05:23.650Z,9.2
2024-01-16T13:20:25.772Z,11.4
2024-01-16T13:35:25.015Z,8.4
2024-01-16T13:50:26.515Z,9.7
2024-01-16T14:05:26.241Z,13.5
2024-01-16T14:20:28.862Z,13.1
2024-01-16T14:35:27.760Z,11.4
2024-01-16T14:50:28.858Z,13.3
2024-01-16T15:05:28.912Z,11.8
2024-01-16T15:20:29.683Z,14.9
2024-01-16T15:35:30.821Z,13.4
2024-01-16T15:50:30.864Z,20.3
2024-01-16T16:05:31.162Z,47.3
2024-01-16T16:20:32.567Z,41.9
2024-01-16T16:35:32.744Z,42.6
2024-01-16T16:50:33.468Z,69.6
2024-01-16T17:05:34.481Z,31
2024-01-16T17:20:34.918Z,25.2
2024-01-16T17:35:35.942Z,25.6
2024-01-16T17:50:36.430Z,34.2
2024-01-16T18:05:37.498Z,36.7
2024-01-16T18:20:40.606Z,33.4
2024-01-16T18:35:38.443Z,22.9
2024-01-16T18:50:39.152Z,44.1
2024-01-16T19:05:39.977Z,57.8
2024-01-16T19:20:40.674Z,66
2024-01-16T19:35:41.406Z,32.6
2024-01-16T19:50:42.068Z,31.9
2024-01-16T20:05:42.258Z,31.2
2024-01-16T20:20:42.770Z,25.1
2024-01-16T20:35:44.061Z,33.6
2024-01-16T20:50:44.373Z,39.8
2024-01-16T21:05:45.768Z,37.3
2024-01-16T21:20:45.911Z,39.6
2024-01-16T21:35:46.398Z,17.2
2024-01-16T21:50:47.702Z,15.1
2024-01-16T22:05:48.200Z,17.2
2024-01-16T22:20:48.974Z,15.2
2024-01-16T22:35:49.232Z,12.5
2024-01-16T22:50:51.141Z,15.3
2024-01-16T23:00:43.759Z,12.1
2024-01-16T23:15:40.828Z,8.2
2024-01-16T23:30:43.197Z,10.3
2024-01-16T23:45:43.110Z,8.1
